sensor_id;sensor_type;location;lat;lon;timestamp;temperature;humidity
22114;DHT22;11223;49.968;9.062;2022-08-01T00:02:13;19.80;99.90
22114;DHT22;11223;49.968;9.062;2022-08-01T00:04:39;19.70;99.90
22114;DHT22;11223;49.968;9.062;2022-08-01T00:07:05;19.70;99.90
22114;DHT22;11223;49.968;9.062;2022-08-01T00:09:30;19.60;99.90
22114;DHT22;11223;49.968;9.062;2022-08-01T00:11:56;19.60;99.90
22114;DHT22;11223;49.968;9.062;2022-08-01T00:14:21;19.60;99.90
22114;DHT22;11223;49.968;9.062;2022-08-01T00:16:47;19.50;99.90
22114;DHT22;11223;49.968;9.062;2022-08-01T00:19:13;19.40;99.90
22114;DHT22;11223;49.968;9.062;2022-08-01T00:21:38;19.40;99.90
22114;DHT22;11223;49.968;9.062;2022-08-01T00:24:04;19.40;99.90
22114;DHT22;11223;49.968;9.062;2022-08-01T00:26:29;19.30;99.90
22114;DHT22;11223;49.968;9.062;2022-08-01T00:28:55;19.30;99.90
22114;DHT22;11223;49.968;9.062;2022-08-01T00:31:21;19.30;99.90
22114;DHT22;11223;49.968;9.062;2022-08-01T00:33:46;19.20;99.90
22114;DHT22;11223;49.968;9.062;2022-08-01T00:36:12;19.20;99.90
22114;DHT22;11223;49.968;9.062;2022-08-01T00:38:37;19.20;99.90
22114;DHT22;11223;49.968;9.062;2022-08-01T00:41:03;19.10;99.90
22114;DHT22;11223;49.968;9.062;2022-08-01T00:43:29;19.00;99.90
22114;DHT22;11223;49.968;9.062;2022-08-01T00:45:54;19.00;99.90
22114;DHT22;11223;49.968;9.062;2022-08-01T00:48:20;19.00;99.90
22114;DHT22;11223;49.968;9.062;2022-08-01T00:50:45;18.90;99.90
22114;DHT22;11223;49.968;9.062;2022-08-01T00:53:11;18.90;99.90
22114;DHT22;11223;49.968;9.062;2022-08-01T00:55:37;18.90;99.90
22114;DHT22;11223;49.968;9.062;2022-08-01T00:58:03;18.90;99.90
22114;DHT22;11223;49.968;9.062;2022-08-01T01:00:29;18.80;99.90
22114;DHT22;11223;49.968;9.062;2022-08-01T01:02:54;18.80;99.90
22114;DHT22;11223;49.968;9.062;2022-08-01T01:05:20;18.70;99.90
22114;DHT22;11223;49.968;9.062;2022-08-01T01:10:24;18.70;99.90
22114;DHT22;11223;49.968;9.062;2022-08-01T01:12:55;18.60;99.90
22114;DHT22;11223;49.968;9.062;2022-08-01T01:15:43;18.50;99.90
22114;DHT22;11223;49.968;9.062;2022-08-01T01:18:14;18.50;99.90
22114;DHT22;11223;49.968;9.062;2022-08-01T01:20:50;18.50;99.90
22114;DHT22;11223;49.968;9.062;2022-08-01T01:26:04;18.50;99.90
22114;DHT22;11223;49.968;9.062;2022-08-01T01:28:52;18.50;99.90
22114;DHT22;11223;49.968;9.062;2022-08-01T01:31:21;18.40;99.90
22114;DHT22;11223;49.968;9.062;2022-08-01T01:33:49;18.50;99.90
22114;DHT22;11223;49.968;9.062;2022-08-01T01:36:18;18.50;99.90
22114;DHT22;11223;49.968;9.062;2022-08-01T01:38:45;18.40;99.90
22114;DHT22;11223;49.968;9.062;2022-08-01T01:41:13;18.50;99.90
22114;DHT22;11223;49.968;9.062;2022-08-01T01:43:40;18.50;99.90
22114;DHT22;11223;49.968;9.062;2022-08-01T01:46:06;18.50;99.90
22114;DHT22;11223;49.968;9.062;2022-08-01T01:48:34;18.50;99.90
22114;DHT22;11223;49.968;9.062;2022-08-01T01:51:00;18.50;99.90
22114;DHT22;11223;49.968;9.062;2022-08-01T01:53:28;18.50;99.90
22114;DHT22;11223;49.968;9.062;2022-08-01T01:55:55;18.50;99.90
22114;DHT22;11223;49.968;9.062;2022-08-01T01:58:24;18.40;99.90
22114;DHT22;11223;49.968;9.062;2022-08-01T02:00:52;18.50;99.90
22114;DHT22;11223;49.968;9.062;2022-08-01T02:03:19;18.50;99.90
22114;DHT22;11223;49.968;9.062;2022-08-01T02:05:46;18.50;99.90
22114;DHT22;11223;49.968;9.062;2022-08-01T02:08:15;18.40;99.90
22114;DHT22;11223;49.968;9.062;2022-08-01T02:10:42;18.40;99.90
22114;DHT22;11223;49.968;9.062;2022-08-01T02:13:29;18.40;99.90
22114;DHT22;11223;49.968;9.062;2022-08-01T02:15:55;18.40;99.90
22114;DHT22;11223;49.968;9.062;2022-08-01T02:18:21;18.40;99.90
22114;DHT22;11223;49.968;9.062;2022-08-01T02:20:48;18.40;99.90
22114;DHT22;11223;49.968;9.062;2022-08-01T02:23:15;18.40;99.90
22114;DHT22;11223;49.968;9.062;2022-08-01T02:25:52;18.40;99.90
22114;DHT22;11223;49.968;9.062;2022-08-01T02:28:22;18.40;99.90
22114;DHT22;11223;49.968;9.062;2022-08-01T02:30:53;18.40;99.90
22114;DHT22;11223;49.968;9.062;2022-08-01T02:33:23;18.40;99.90
22114;DHT22;11223;49.968;9.062;2022-08-01T02:35:52;18.30;99.90
22114;DHT22;11223;49.968;9.062;2022-08-01T02:38:20;18.40;99.90
22114;DHT22;11223;49.968;9.062;2022-08-01T02:40:48;18.40;99.90
22114;DHT22;11223;49.968;9.062;2022-08-01T02:43:18;18.40;99.90
22114;DHT22;11223;49.968;9.062;2022-08-01T02:45:47;18.40;99.90
22114;DHT22;11223;49.968;9.062;2022-08-01T02:48:17;18.40;99.90
22114;DHT22;11223;49.968;9.062;2022-08-01T02:50:46;18.40;99.90
22114;DHT22;11223;49.968;9.062;2022-08-01T02:53:13;18.40;99.90
22114;DHT22;11223;49.968;9.062;2022-08-01T02:55:41;18.50;99.90
22114;DHT22;11223;49.968;9.062;2022-08-01T02:58:09;18.40;99.90
22114;DHT22;11223;49.968;9.062;2022-08-01T03:00:36;18.40;99.90
22114;DHT22;11223;49.968;9.062;2022-08-01T03:03:05;18.40;99.90
22114;DHT22;11223;49.968;9.062;2022-08-01T03:05:32;18.30;99.90
22114;DHT22;11223;49.968;9.062;2022-08-01T03:08:00;18.30;99.90
22114;DHT22;11223;49.968;9.062;2022-08-01T03:10:28;18.20;99.90
22114;DHT22;11223;49.968;9.062;2022-08-01T03:12:54;18.30;99.90
22114;DHT22;11223;49.968;9.062;2022-08-01T03:15:22;18.20;99.90
22114;DHT22;11223;49.968;9.062;2022-08-01T03:17:50;18.10;99.90
22114;DHT22;11223;49.968;9.062;2022-08-01T03:20:18;18.20;99.90
22114;DHT22;11223;49.968;9.062;2022-08-01T03:22:45;18.20;99.90
22114;DHT22;11223;49.968;9.062;2022-08-01T03:25:13;18.20;99.90
22114;DHT22;11223;49.968;9.062;2022-08-01T03:27:40;18.20;99.90
22114;DHT22;11223;49.968;9.062;2022-08-01T03:30:07;18.20;99.90
22114;DHT22;11223;49.968;9.062;2022-08-01T03:32:33;18.30;99.90
22114;DHT22;11223;49.968;9.062;2022-08-01T03:34:59;18.30;99.90
22114;DHT22;11223;49.968;9.062;2022-08-01T03:37:27;18.30;99.90
22114;DHT22;11223;49.968;9.062;2022-08-01T03:42:33;18.30;99.90
22114;DHT22;11223;49.968;9.062;2022-08-01T03:45:04;18.30;99.90
22114;DHT22;11223;49.968;9.062;2022-08-01T03:47:33;18.40;99.90
22114;DHT22;11223;49.968;9.062;2022-08-01T03:50:02;18.40;99.90
22114;DHT22;11223;49.968;9.062;2022-08-01T03:52:30;18.40;99.90
22114;DHT22;11223;49.968;9.062;2022-08-01T03:54:59;18.40;99.90
22114;DHT22;11223;49.968;9.062;2022-08-01T03:57:27;18.40;99.90
22114;DHT22;11223;49.968;9.062;2022-08-01T03:59:54;18.40;99.90
22114;DHT22;11223;49.968;9.062;2022-08-01T04:02:21;18.40;99.90
22114;DHT22;11223;49.968;9.062;2022-08-01T04:04:47;18.50;99.90
22114;DHT22;11223;49.968;9.062;2022-08-01T04:07:23;18.50;99.90
22114;DHT22;11223;49.968;9.062;2022-08-01T04:09:49;18.40;99.90
22114;DHT22;11223;49.968;9.062;2022-08-01T04:12:15;18.50;99.90
22114;DHT22;11223;49.968;9.062;2022-08-01T04:14:41;18.50;99.90
22114;DHT22;11223;49.968;9.062;2022-08-01T04:17:06;18.50;99.90
22114;DHT22;11223;49.968;9.062;2022-08-01T04:19:32;18.50;99.90
22114;DHT22;11223;49.968;9.062;2022-08-01T04:21:58;18.50;99.90
22114;DHT22;11223;49.968;9.062;2022-08-01T04:24:24;18.50;99.90
22114;DHT22;11223;49.968;9.062;2022-08-01T04:26:50;18.60;99.90
22114;DHT22;11223;49.968;9.062;2022-08-01T04:29:19;18.60;99.90
22114;DHT22;11223;49.968;9.062;2022-08-01T04:31:46;18.60;99.90
22114;DHT22;11223;49.968;9.062;2022-08-01T04:34:16;18.60;99.90
22114;DHT22;11223;49.968;9.062;2022-08-01T04:36:44;18.60;99.90
22114;DHT22;11223;49.968;9.062;2022-08-01T04:39:11;18.60;99.90
22114;DHT22;11223;49.968;9.062;2022-08-01T04:41:37;18.60;99.90
22114;DHT22;11223;49.968;9.062;2022-08-01T04:44:04;18.60;99.90
22114;DHT22;11223;49.968;9.062;2022-08-01T04:46:30;18.70;99.90
22114;DHT22;11223;49.968;9.062;2022-08-01T04:48:57;18.70;99.90
22114;DHT22;11223;49.968;9.062;2022-08-01T04:51:23;18.80;99.90
22114;DHT22;11223;49.968;9.062;2022-08-01T04:53:49;18.90;99.90
22114;DHT22;11223;49.968;9.062;2022-08-01T04:56:19;18.90;99.90
22114;DHT22;11223;49.968;9.062;2022-08-01T04:58:46;19.00;99.90
22114;DHT22;11223;49.968;9.062;2022-08-01T05:01:12;19.10;99.90
22114;DHT22;11223;49.968;9.062;2022-08-01T05:03:37;19.10;99.90
22114;DHT22;11223;49.968;9.062;2022-08-01T05:06:03;19.20;99.90
22114;DHT22;11223;49.968;9.062;2022-08-01T05:08:29;19.30;99.90
22114;DHT22;11223;49.968;9.062;2022-08-01T05:10:55;19.40;99.90
22114;DHT22;11223;49.968;9.062;2022-08-01T05:13:20;19.50;99.90
22114;DHT22;11223;49.968;9.062;2022-08-01T05:15:46;19.50;99.90
22114;DHT22;11223;49.968;9.062;2022-08-01T05:18:12;19.50;99.90
22114;DHT22;11223;49.968;9.062;2022-08-01T05:20:37;19.60;99.90
22114;DHT22;11223;49.968;9.062;2022-08-01T05:23:04;19.70;99.90
22114;DHT22;11223;49.968;9.062;2022-08-01T05:25:30;19.70;99.90
22114;DHT22;11223;49.968;9.062;2022-08-01T05:27:56;19.70;99.90
22114;DHT22;11223;49.968;9.062;2022-08-01T05:30:21;19.80;99.90
22114;DHT22;11223;49.968;9.062;2022-08-01T05:32:47;19.90;99.90
22114;DHT22;11223;49.968;9.062;2022-08-01T05:35:12;20.00;99.90
22114;DHT22;11223;49.968;9.062;2022-08-01T05:37:38;20.00;99.90
22114;DHT22;11223;49.968;9.062;2022-08-01T05:40:05;20.10;99.90
22114;DHT22;11223;49.968;9.062;2022-08-01T05:42:30;20.20;99.90
22114;DHT22;11223;49.968;9.062;2022-08-01T05:44:56;20.40;99.90
22114;DHT22;11223;49.968;9.062;2022-08-01T05:47:22;20.40;99.90
22114;DHT22;11223;49.968;9.062;2022-08-01T05:49:47;20.50;99.90
22114;DHT22;11223;49.968;9.062;2022-08-01T05:52:13;20.60;99.90
22114;DHT22;11223;49.968;9.062;2022-08-01T05:54:39;20.70;99.90
22114;DHT22;11223;49.968;9.062;2022-08-01T05:57:05;20.80;99.90
22114;DHT22;11223;49.968;9.062;2022-08-01T05:59:31;20.80;99.90
22114;DHT22;11223;49.968;9.062;2022-08-01T06:01:56;20.90;99.90
22114;DHT22;11223;49.968;9.062;2022-08-01T06:04:22;20.90;99.90
22114;DHT22;11223;49.968;9.062;2022-08-01T06:06:48;21.00;99.90
22114;DHT22;11223;49.968;9.062;2022-08-01T06:09:14;21.10;99.90
22114;DHT22;11223;49.968;9.062;2022-08-01T06:11:40;21.30;99.90
22114;DHT22;11223;49.968;9.062;2022-08-01T06:14:05;21.40;99.90
22114;DHT22;11223;49.968;9.062;2022-08-01T06:16:31;21.60;99.90
22114;DHT22;11223;49.968;9.062;2022-08-01T06:18:57;21.70;99.90
22114;DHT22;11223;49.968;9.062;2022-08-01T06:21:22;21.80;99.90
22114;DHT22;11223;49.968;9.062;2022-08-01T06:23:48;21.80;99.90
22114;DHT22;11223;49.968;9.062;2022-08-01T06:26:13;21.90;99.90
22114;DHT22;11223;49.968;9.062;2022-08-01T06:28:42;21.90;99.90
22114;DHT22;11223;49.968;9.062;2022-08-01T06:31:07;22.00;99.90
22114;DHT22;11223;49.968;9.062;2022-08-01T06:33:35;22.10;99.90
22114;DHT22;11223;49.968;9.062;2022-08-01T06:36:00;22.20;99.90
22114;DHT22;11223;49.968;9.062;2022-08-01T06:38:26;22.40;99.90
22114;DHT22;11223;49.968;9.062;2022-08-01T06:40:51;22.50;99.90
22114;DHT22;11223;49.968;9.062;2022-08-01T06:43:17;22.50;99.90
22114;DHT22;11223;49.968;9.062;2022-08-01T06:45:44;22.40;99.90
22114;DHT22;11223;49.968;9.062;2022-08-01T06:48:09;22.40;99.90
22114;DHT22;11223;49.968;9.062;2022-08-01T06:50:35;22.30;99.90
22114;DHT22;11223;49.968;9.062;2022-08-01T06:53:03;22.20;99.90
22114;DHT22;11223;49.968;9.062;2022-08-01T06:55:29;22.10;99.90
22114;DHT22;11223;49.968;9.062;2022-08-01T06:57:54;22.10;99.90
22114;DHT22;11223;49.968;9.062;2022-08-01T07:00:21;21.90;99.90
22114;DHT22;11223;49.968;9.062;2022-08-01T07:02:49;21.80;99.90
22114;DHT22;11223;49.968;9.062;2022-08-01T07:05:14;21.80;99.90
22114;DHT22;11223;49.968;9.062;2022-08-01T07:07:40;21.70;99.90
22114;DHT22;11223;49.968;9.062;2022-08-01T07:10:06;21.60;99.90
22114;DHT22;11223;49.968;9.062;2022-08-01T07:12:34;21.50;99.90
22114;DHT22;11223;49.968;9.062;2022-08-01T07:15:02;21.40;99.90
22114;DHT22;11223;49.968;9.062;2022-08-01T07:17:28;21.40;99.90
22114;DHT22;11223;49.968;9.062;2022-08-01T07:19:54;21.30;99.90
22114;DHT22;11223;49.968;9.062;2022-08-01T07:22:19;21.30;99.90
22114;DHT22;11223;49.968;9.062;2022-08-01T07:24:46;21.30;99.90
22114;DHT22;11223;49.968;9.062;2022-08-01T07:27:11;21.30;99.90
22114;DHT22;11223;49.968;9.062;2022-08-01T07:29:37;21.20;99.90
22114;DHT22;11223;49.968;9.062;2022-08-01T07:32:02;21.20;99.90
22114;DHT22;11223;49.968;9.062;2022-08-01T07:34:28;21.20;99.90
22114;DHT22;11223;49.968;9.062;2022-08-01T07:36:54;21.30;99.90
22114;DHT22;11223;49.968;9.062;2022-08-01T07:39:20;21.30;99.90
22114;DHT22;11223;49.968;9.062;2022-08-01T07:41:45;21.30;99.90
22114;DHT22;11223;49.968;9.062;2022-08-01T07:44:11;21.40;99.90
22114;DHT22;11223;49.968;9.062;2022-08-01T07:46:36;21.50;99.90
22114;DHT22;11223;49.968;9.062;2022-08-01T07:49:02;21.50;99.90
22114;DHT22;11223;49.968;9.062;2022-08-01T07:51:27;21.60;99.90
22114;DHT22;11223;49.968;9.062;2022-08-01T07:53:53;21.60;99.90
22114;DHT22;11223;49.968;9.062;2022-08-01T07:56:19;21.70;99.90
22114;DHT22;11223;49.968;9.062;2022-08-01T07:58:44;21.70;99.90
22114;DHT22;11223;49.968;9.062;2022-08-01T08:01:11;21.70;99.90
22114;DHT22;11223;49.968;9.062;2022-08-01T08:03:37;21.80;99.90
22114;DHT22;11223;49.968;9.062;2022-08-01T08:06:03;21.90;99.90
22114;DHT22;11223;49.968;9.062;2022-08-01T08:08:28;22.00;99.90
22114;DHT22;11223;49.968;9.062;2022-08-01T08:10:54;22.30;99.90
22114;DHT22;11223;49.968;9.062;2022-08-01T08:13:20;22.50;99.90
22114;DHT22;11223;49.968;9.062;2022-08-01T08:15:45;22.80;99.90
22114;DHT22;11223;49.968;9.062;2022-08-01T08:18:11;23.30;99.90
22114;DHT22;11223;49.968;9.062;2022-08-01T08:20:37;23.70;99.90
22114;DHT22;11223;49.968;9.062;2022-08-01T08:23:02;23.90;99.90
22114;DHT22;11223;49.968;9.062;2022-08-01T08:25:48;23.90;99.90
22114;DHT22;11223;49.968;9.062;2022-08-01T08:28:13;23.90;99.90
22114;DHT22;11223;49.968;9.062;2022-08-01T08:30:39;23.90;99.90
22114;DHT22;11223;49.968;9.062;2022-08-01T08:33:04;23.90;99.90
22114;DHT22;11223;49.968;9.062;2022-08-01T08:35:30;23.80;99.90
22114;DHT22;11223;49.968;9.062;2022-08-01T08:37:56;23.80;99.90
22114;DHT22;11223;49.968;9.062;2022-08-01T08:40:23;23.80;99.90
22114;DHT22;11223;49.968;9.062;2022-08-01T08:42:51;23.90;99.90
22114;DHT22;11223;49.968;9.062;2022-08-01T08:45:18;24.20;99.90
22114;DHT22;11223;49.968;9.062;2022-08-01T08:47:43;24.40;99.90
22114;DHT22;11223;49.968;9.062;2022-08-01T08:50:11;24.50;99.90
22114;DHT22;11223;49.968;9.062;2022-08-01T08:52:38;24.80;99.90
22114;DHT22;11223;49.968;9.062;2022-08-01T08:55:05;25.00;99.90
22114;DHT22;11223;49.968;9.062;2022-08-01T08:57:31;25.30;99.90
22114;DHT22;11223;49.968;9.062;2022-08-01T08:59:57;25.40;99.90
22114;DHT22;11223;49.968;9.062;2022-08-01T09:02:23;25.40;99.90
22114;DHT22;11223;49.968;9.062;2022-08-01T09:04:49;25.40;99.90
22114;DHT22;11223;49.968;9.062;2022-08-01T09:07:15;25.60;99.90
22114;DHT22;11223;49.968;9.062;2022-08-01T09:09:41;25.70;99.90
22114;DHT22;11223;49.968;9.062;2022-08-01T09:12:06;25.60;99.90
22114;DHT22;11223;49.968;9.062;2022-08-01T09:14:32;25.40;99.90
22114;DHT22;11223;49.968;9.062;2022-08-01T09:17:04;25.30;99.90
22114;DHT22;11223;49.968;9.062;2022-08-01T09:19:43;25.30;99.90
22114;DHT22;11223;49.968;9.062;2022-08-01T09:22:15;25.40;99.90
22114;DHT22;11223;49.968;9.062;2022-08-01T09:27:22;25.50;99.90
22114;DHT22;11223;49.968;9.062;2022-08-01T09:29:51;25.50;99.90
22114;DHT22;11223;49.968;9.062;2022-08-01T09:32:16;25.60;99.90
22114;DHT22;11223;49.968;9.062;2022-08-01T09:34:42;25.70;99.90
22114;DHT22;11223;49.968;9.062;2022-08-01T09:37:08;25.70;99.90
22114;DHT22;11223;49.968;9.062;2022-08-01T09:39:35;25.60;99.90
22114;DHT22;11223;49.968;9.062;2022-08-01T09:42:25;25.50;99.90
22114;DHT22;11223;49.968;9.062;2022-08-01T09:44:51;25.40;99.90
22114;DHT22;11223;49.968;9.062;2022-08-01T09:47:18;25.50;99.90
22114;DHT22;11223;49.968;9.062;2022-08-01T09:49:53;25.50;99.90
22114;DHT22;11223;49.968;9.062;2022-08-01T09:52:21;25.50;99.90
22114;DHT22;11223;49.968;9.062;2022-08-01T09:54:56;25.20;99.90
22114;DHT22;11223;49.968;9.062;2022-08-01T09:57:23;25.10;99.90
22114;DHT22;11223;49.968;9.062;2022-08-01T09:59:55;25.40;99.90
22114;DHT22;11223;49.968;9.062;2022-08-01T10:02:34;25.60;99.90
22114;DHT22;11223;49.968;9.062;2022-08-01T10:05:05;25.80;99.90
22114;DHT22;11223;49.968;9.062;2022-08-01T10:07:31;26.10;99.90
22114;DHT22;11223;49.968;9.062;2022-08-01T10:10:10;26.40;99.90
22114;DHT22;11223;49.968;9.062;2022-08-01T10:12:36;26.80;99.90
22114;DHT22;11223;49.968;9.062;2022-08-01T10:15:02;26.90;99.90
22114;DHT22;11223;49.968;9.062;2022-08-01T10:17:28;26.80;99.90
22114;DHT22;11223;49.968;9.062;2022-08-01T10:19:55;26.60;99.90
22114;DHT22;11223;49.968;9.062;2022-08-01T10:22:23;26.30;99.90
22114;DHT22;11223;49.968;9.062;2022-08-01T10:24:52;26.30;99.90
22114;DHT22;11223;49.968;9.062;2022-08-01T10:27:20;26.50;99.90
22114;DHT22;11223;49.968;9.062;2022-08-01T10:29:51;26.80;99.90
22114;DHT22;11223;49.968;9.062;2022-08-01T10:32:17;27.10;99.90
22114;DHT22;11223;49.968;9.062;2022-08-01T10:34:44;27.40;99.90
22114;DHT22;11223;49.968;9.062;2022-08-01T10:37:10;27.50;99.80
22114;DHT22;11223;49.968;9.062;2022-08-01T10:39:39;27.70;99.70
22114;DHT22;11223;49.968;9.062;2022-08-01T10:42:06;28.00;99.90
22114;DHT22;11223;49.968;9.062;2022-08-01T10:44:35;28.20;97.70
22114;DHT22;11223;49.968;9.062;2022-08-01T10:47:10;28.30;95.50
22114;DHT22;11223;49.968;9.062;2022-08-01T10:49:51;28.20;96.50
22114;DHT22;11223;49.968;9.062;2022-08-01T10:52:19;28.10;96.00
22114;DHT22;11223;49.968;9.062;2022-08-01T10:54:45;28.00;96.50
22114;DHT22;11223;49.968;9.062;2022-08-01T10:57:11;27.70;97.60
22114;DHT22;11223;49.968;9.062;2022-08-01T10:59:49;27.40;97.30
22114;DHT22;11223;49.968;9.062;2022-08-01T11:02:31;27.20;98.40
22114;DHT22;11223;49.968;9.062;2022-08-01T11:05:06;26.90;98.60
22114;DHT22;11223;49.968;9.062;2022-08-01T11:07:48;26.70;99.90
22114;DHT22;11223;49.968;9.062;2022-08-01T11:13:02;27.00;99.90
22114;DHT22;11223;49.968;9.062;2022-08-01T11:15:31;27.40;99.70
22114;DHT22;11223;49.968;9.062;2022-08-01T11:17:58;27.70;97.40
22114;DHT22;11223;49.968;9.062;2022-08-01T11:20:32;27.70;97.30
22114;DHT22;11223;49.968;9.062;2022-08-01T11:30:51;26.70;99.90
22114;DHT22;11223;49.968;9.062;2022-08-01T11:41:11;26.10;99.90
22114;DHT22;11223;49.968;9.062;2022-08-01T11:52:09;25.90;99.90
22114;DHT22;11223;49.968;9.062;2022-08-01T11:57:14;26.00;99.90
22114;DHT22;11223;49.968;9.062;2022-08-01T11:59:46;26.20;99.90
22114;DHT22;11223;49.968;9.062;2022-08-01T12:02:27;26.40;99.90
22114;DHT22;11223;49.968;9.062;2022-08-01T12:07:20;27.10;98.00
22114;DHT22;11223;49.968;9.062;2022-08-01T12:09:47;27.40;97.10
22114;DHT22;11223;49.968;9.062;2022-08-01T12:12:17;27.70;96.70
22114;DHT22;11223;49.968;9.062;2022-08-01T12:14:44;27.90;95.60
22114;DHT22;11223;49.968;9.062;2022-08-01T12:17:10;28.20;93.90
22114;DHT22;11223;49.968;9.062;2022-08-01T12:19:36;28.40;93.80
22114;DHT22;11223;49.968;9.062;2022-08-01T12:22:12;28.60;94.10
22114;DHT22;11223;49.968;9.062;2022-08-01T12:24:40;28.80;92.30
22114;DHT22;11223;49.968;9.062;2022-08-01T12:27:08;29.10;92.00
22114;DHT22;11223;49.968;9.062;2022-08-01T12:29:43;29.30;90.90
22114;DHT22;11223;49.968;9.062;2022-08-01T12:32:47;29.70;91.30
22114;DHT22;11223;49.968;9.062;2022-08-01T12:35:14;30.00;88.20
22114;DHT22;11223;49.968;9.062;2022-08-01T12:37:45;30.30;86.40
22114;DHT22;11223;49.968;9.062;2022-08-01T12:40:16;30.50;82.60
22114;DHT22;11223;49.968;9.062;2022-08-01T12:42:43;30.60;81.40
22114;DHT22;11223;49.968;9.062;2022-08-01T12:45:12;30.60;84.30
22114;DHT22;11223;49.968;9.062;2022-08-01T12:47:38;30.50;78.40
22114;DHT22;11223;49.968;9.062;2022-08-01T12:50:11;30.30;81.90
22114;DHT22;11223;49.968;9.062;2022-08-01T12:52:38;30.30;86.70
22114;DHT22;11223;49.968;9.062;2022-08-01T12:55:09;30.50;84.50
22114;DHT22;11223;49.968;9.062;2022-08-01T12:57:37;30.60;82.40
22114;DHT22;11223;49.968;9.062;2022-08-01T13:00:26;30.50;78.80
22114;DHT22;11223;49.968;9.062;2022-08-01T13:05:47;30.40;77.00
22114;DHT22;11223;49.968;9.062;2022-08-01T13:08:32;30.70;75.60
22114;DHT22;11223;49.968;9.062;2022-08-01T13:11:05;30.80;78.30
22114;DHT22;11223;49.968;9.062;2022-08-01T13:13:43;31.00;78.00
22114;DHT22;11223;49.968;9.062;2022-08-01T13:16:09;31.00;77.60
22114;DHT22;11223;49.968;9.062;2022-08-01T13:18:36;30.90;82.20
22114;DHT22;11223;49.968;9.062;2022-08-01T13:24:22;30.40;79.40
22114;DHT22;11223;49.968;9.062;2022-08-01T13:26:49;29.80;74.60
22114;DHT22;11223;49.968;9.062;2022-08-01T13:29:17;29.30;80.20
22114;DHT22;11223;49.968;9.062;2022-08-01T13:31:43;29.00;84.40
22114;DHT22;11223;49.968;9.062;2022-08-01T13:34:10;28.80;85.80
22114;DHT22;11223;49.968;9.062;2022-08-01T13:36:37;28.90;84.70
22114;DHT22;11223;49.968;9.062;2022-08-01T13:39:04;29.20;84.00
22114;DHT22;11223;49.968;9.062;2022-08-01T13:41:49;29.50;84.10
22114;DHT22;11223;49.968;9.062;2022-08-01T13:44:14;29.90;83.40
22114;DHT22;11223;49.968;9.062;2022-08-01T13:46:41;29.90;76.20
22114;DHT22;11223;49.968;9.062;2022-08-01T13:49:09;29.80;74.70
22114;DHT22;11223;49.968;9.062;2022-08-01T13:51:35;29.70;80.40
22114;DHT22;11223;49.968;9.062;2022-08-01T13:54:01;29.50;82.40
22114;DHT22;11223;49.968;9.062;2022-08-01T13:56:27;29.10;84.50
22114;DHT22;11223;49.968;9.062;2022-08-01T13:58:54;28.90;83.20
22114;DHT22;11223;49.968;9.062;2022-08-01T14:01:20;28.60;83.60
22114;DHT22;11223;49.968;9.062;2022-08-01T14:03:47;28.50;92.10
22114;DHT22;11223;49.968;9.062;2022-08-01T14:06:13;28.30;90.10
22114;DHT22;11223;49.968;9.062;2022-08-01T14:08:41;28.10;92.60
22114;DHT22;11223;49.968;9.062;2022-08-01T14:11:07;28.10;92.30
22114;DHT22;11223;49.968;9.062;2022-08-01T14:13:32;28.10;90.50
22114;DHT22;11223;49.968;9.062;2022-08-01T14:15:58;28.00;90.20
22114;DHT22;11223;49.968;9.062;2022-08-01T14:18:25;28.10;89.20
22114;DHT22;11223;49.968;9.062;2022-08-01T14:20:52;28.00;87.80
22114;DHT22;11223;49.968;9.062;2022-08-01T14:23:17;28.10;89.00
22114;DHT22;11223;49.968;9.062;2022-08-01T14:25:43;28.10;89.80
22114;DHT22;11223;49.968;9.062;2022-08-01T14:28:09;28.10;88.70
22114;DHT22;11223;49.968;9.062;2022-08-01T14:30:34;28.10;88.10
22114;DHT22;11223;49.968;9.062;2022-08-01T14:33:00;28.30;88.30
22114;DHT22;11223;49.968;9.062;2022-08-01T14:35:26;28.40;90.10
22114;DHT22;11223;49.968;9.062;2022-08-01T14:37:51;28.50;90.10
22114;DHT22;11223;49.968;9.062;2022-08-01T14:40:17;28.50;91.00
22114;DHT22;11223;49.968;9.062;2022-08-01T14:42:43;28.40;89.90
22114;DHT22;11223;49.968;9.062;2022-08-01T14:45:10;28.10;93.00
22114;DHT22;11223;49.968;9.062;2022-08-01T14:47:37;27.90;93.20
22114;DHT22;11223;49.968;9.062;2022-08-01T14:50:08;27.80;93.70
22114;DHT22;11223;49.968;9.062;2022-08-01T14:52:35;27.70;94.90
22114;DHT22;11223;49.968;9.062;2022-08-01T14:55:01;27.70;95.50
22114;DHT22;11223;49.968;9.062;2022-08-01T14:57:27;27.60;96.50
22114;DHT22;11223;49.968;9.062;2022-08-01T14:59:53;27.60;93.90
22114;DHT22;11223;49.968;9.062;2022-08-01T15:02:18;27.60;93.30
22114;DHT22;11223;49.968;9.062;2022-08-01T15:04:45;27.50;88.60
22114;DHT22;11223;49.968;9.062;2022-08-01T15:07:11;27.60;90.10
22114;DHT22;11223;49.968;9.062;2022-08-01T15:09:37;27.60;92.20
22114;DHT22;11223;49.968;9.062;2022-08-01T15:12:03;27.60;93.20
22114;DHT22;11223;49.968;9.062;2022-08-01T15:14:28;27.50;93.70
22114;DHT22;11223;49.968;9.062;2022-08-01T15:17:20;27.60;94.90
22114;DHT22;11223;49.968;9.062;2022-08-01T15:19:48;27.70;93.30
22114;DHT22;11223;49.968;9.062;2022-08-01T15:22:14;27.70;90.70
22114;DHT22;11223;49.968;9.062;2022-08-01T15:24:40;27.90;90.90
22114;DHT22;11223;49.968;9.062;2022-08-01T15:27:06;28.00;92.00
22114;DHT22;11223;49.968;9.062;2022-08-01T15:29:31;28.10;91.60
22114;DHT22;11223;49.968;9.062;2022-08-01T15:31:58;28.20;91.10
22114;DHT22;11223;49.968;9.062;2022-08-01T15:34:24;28.20;90.30
22114;DHT22;11223;49.968;9.062;2022-08-01T15:36:50;28.30;86.80
22114;DHT22;11223;49.968;9.062;2022-08-01T15:39:16;28.20;90.20
22114;DHT22;11223;49.968;9.062;2022-08-01T15:41:42;28.10;92.40
22114;DHT22;11223;49.968;9.062;2022-08-01T15:44:08;28.10;91.60
22114;DHT22;11223;49.968;9.062;2022-08-01T15:46:33;28.00;92.90
22114;DHT22;11223;49.968;9.062;2022-08-01T15:49:03;27.80;91.40
22114;DHT22;11223;49.968;9.062;2022-08-01T15:51:30;27.70;89.50
22114;DHT22;11223;49.968;9.062;2022-08-01T15:53:56;27.70;90.30
22114;DHT22;11223;49.968;9.062;2022-08-01T15:56:22;27.70;88.10
22114;DHT22;11223;49.968;9.062;2022-08-01T15:58:48;27.70;89.60
22114;DHT22;11223;49.968;9.062;2022-08-01T16:01:13;27.60;90.80
22114;DHT22;11223;49.968;9.062;2022-08-01T16:03:39;27.50;91.50
22114;DHT22;11223;49.968;9.062;2022-08-01T16:06:04;27.40;91.20
22114;DHT22;11223;49.968;9.062;2022-08-01T16:08:32;27.30;92.00
22114;DHT22;11223;49.968;9.062;2022-08-01T16:10:58;27.20;93.20
22114;DHT22;11223;49.968;9.062;2022-08-01T16:13:23;27.10;91.50
22114;DHT22;11223;49.968;9.062;2022-08-01T16:15:49;27.00;93.40
22114;DHT22;11223;49.968;9.062;2022-08-01T16:18:14;26.90;93.20
22114;DHT22;11223;49.968;9.062;2022-08-01T16:20:41;26.90;93.50
22114;DHT22;11223;49.968;9.062;2022-08-01T16:23:08;26.80;95.20